KALN/ALN METAR and TAF weather

Enter ICAO airport designator
Station Type Date Time Source
KALN METAR 2019/06/26 17:50 UTC NOAA

KALN 261750Z 12006G14KT 10SM SCT041 30/23 A3007


Station Type Date Time Source
KALN Decoded METAR 2019/06/26 17:50 UTC NOAA

Alton/St. Louis, St. Louis Regional Airport, IL, United States (KALN) 38-54N 090-03W
Jun 26, 2019 - 01:50 PM EDT / 2019.06.26 1750 UTC
Wind: from the ESE (120 degrees) at 7 MPH (6 KT) gusting to 16 MPH (14 KT):0
Visibility: 10 mile(s):0
Sky conditions: partly cloudy
Temperature: 86 F (30 C)
Heat index: 93.4 F (34.1 C):1
Dew Point: 73 F (23 C)
Relative Humidity: 66%
Pressure (altimeter): 30.07 in. Hg (1018 hPa)
ob: KALN 261750Z 12006G14KT 10SM SCT041 30/23 A3007
cycle: 18

Station Type Date Time Source
KALN TAF UTC NOAA

Error!

Example: see airport list